createdAt,value
2022-12-27T00:02:06.695Z,26.33
2022-12-27T00:04:35.745Z,26.90
2022-12-27T00:07:02.466Z,25.00
2022-12-27T00:09:29.165Z,25.95
2022-12-27T00:11:59.798Z,25.70
2022-12-27T00:14:27.099Z,26.58
2022-12-27T00:16:53.838Z,28.63
2022-12-27T00:19:20.636Z,29.75
2022-12-27T00:21:47.337Z,31.48
2022-12-27T00:24:14.065Z,36.13
2022-12-27T00:26:41.894Z,37.20
2022-12-27T00:29:09.949Z,31.23
2022-12-27T00:31:37.020Z,27.52
2022-12-27T00:34:05.965Z,30.48
2022-12-27T00:36:32.685Z,26.63
2022-12-27T00:39:00.292Z,26.88
2022-12-27T00:41:27.522Z,26.48
2022-12-27T00:43:54.212Z,24.73
2022-12-27T00:46:21.072Z,23.65
2022-12-27T00:48:47.728Z,23.70
2022-12-27T00:51:24.622Z,23.92
2022-12-27T00:53:52.727Z,24.73
2022-12-27T00:56:24.846Z,25.08
2022-12-27T00:58:59.741Z,24.20
2022-12-27T01:01:28.660Z,24.67
2022-12-27T01:03:57.136Z,24.75
2022-12-27T01:06:28.896Z,24.48
2022-12-27T01:08:56.651Z,24.67
2022-12-27T01:11:24.451Z,22.83
2022-12-27T01:13:51.144Z,22.23
2022-12-27T01:16:20.689Z,22.25
2022-12-27T01:18:48.057Z,23.75
2022-12-27T01:21:17.359Z,23.45
2022-12-27T01:23:44.304Z,22.52
2022-12-27T01:26:14.244Z,22.33
2022-12-27T01:28:40.983Z,21.70
2022-12-27T01:31:09.606Z,23.75
2022-12-27T01:33:36.403Z,22.48
2022-12-27T01:36:15.212Z,21.83
2022-12-27T01:38:45.137Z,22.83
2022-12-27T01:41:52.313Z,22.38
2022-12-27T01:44:43.038Z,23.70
2022-12-27T01:47:12.794Z,23.50
2022-12-27T01:49:40.894Z,24.48
2022-12-27T01:52:09.463Z,23.73
2022-12-27T01:54:36.289Z,25.40
2022-12-27T01:57:03.180Z,27.10
2022-12-27T01:59:29.882Z,26.90
2022-12-27T02:01:57.039Z,28.05
2022-12-27T02:04:26.773Z,27.65
2022-12-27T02:06:53.698Z,30.23
2022-12-27T02:09:41.684Z,29.20
2022-12-27T02:14:42.176Z,29.55
2022-12-27T02:17:17.943Z,28.05
2022-12-27T02:19:47.526Z,27.33
2022-12-27T02:22:28.732Z,26.80
2022-12-27T02:25:20.926Z,25.90
2022-12-27T02:28:12.439Z,25.85
2022-12-27T02:30:39.701Z,25.80
2022-12-27T02:33:15.395Z,26.17
2022-12-27T02:38:17.348Z,25.33
2022-12-27T02:41:05.155Z,26.00
2022-12-27T02:43:51.321Z,26.85
2022-12-27T02:46:41.755Z,28.05
2022-12-27T02:49:53.021Z,27.02
2022-12-27T02:52:57.049Z,30.25
2022-12-27T02:56:10.502Z,28.50
2022-12-27T02:58:56.994Z,30.48
2022-12-27T03:01:48.392Z,31.67
2022-12-27T03:04:27.310Z,30.88
2022-12-27T03:07:05.914Z,31.52
2022-12-27T03:10:14.925Z,33.60
2022-12-27T03:13:06.207Z,30.38
2022-12-27T03:15:53.780Z,32.00
2022-12-27T03:18:50.607Z,33.35
2022-12-27T03:22:02.086Z,32.83
2022-12-27T03:24:50.179Z,35.55
2022-12-27T03:27:35.038Z,36.42
2022-12-27T03:30:24.682Z,36.50
2022-12-27T03:33:15.675Z,36.45
2022-12-27T03:36:18.048Z,34.15
2022-12-27T03:39:03.319Z,36.97
2022-12-27T03:41:53.991Z,36.00
2022-12-27T03:44:26.768Z,37.25
2022-12-27T03:46:57.268Z,37.05
2022-12-27T03:49:33.097Z,36.30
2022-12-27T03:52:14.961Z,38.10
2022-12-27T03:57:12.118Z,35.50
2022-12-27T03:59:39.115Z,34.33
2022-12-27T04:02:06.433Z,34.78
2022-12-27T04:04:33.188Z,33.72
2022-12-27T04:07:00.445Z,35.90
2022-12-27T04:09:45.874Z,35.42
2022-12-27T04:12:31.406Z,34.95
2022-12-27T04:15:16.621Z,30.85
2022-12-27T04:18:01.663Z,34.63
2022-12-27T04:20:46.957Z,37.15
2022-12-27T04:23:32.402Z,37.70
2022-12-27T04:26:17.950Z,38.03
2022-12-27T04:29:03.096Z,36.45
2022-12-27T04:31:48.194Z,34.85
2022-12-27T04:34:33.506Z,37.72
2022-12-27T04:37:00.188Z,38.10
2022-12-27T04:39:26.974Z,39.90
2022-12-27T04:42:12.330Z,37.63
2022-12-27T04:44:57.862Z,39.30
2022-12-27T04:47:43.405Z,38.60
2022-12-27T04:50:39.465Z,37.63
2022-12-27T04:53:44.883Z,40.47
2022-12-27T04:56:11.687Z,36.17
2022-12-27T04:58:58.280Z,38.15
2022-12-27T05:01:43.637Z,37.72
2022-12-27T05:04:10.319Z,36.53
2022-12-27T05:06:37.031Z,36.42
2022-12-27T05:09:23.405Z,38.45
2022-12-27T05:12:08.849Z,36.72
2022-12-27T05:14:35.676Z,34.10
2022-12-27T05:17:02.348Z,31.70
2022-12-27T05:19:29.074Z,31.20
2022-12-27T05:22:14.540Z,29.80
2022-12-27T05:24:59.673Z,29.00
2022-12-27T05:27:26.711Z,30.42
2022-12-27T05:29:56.405Z,32.13
2022-12-27T05:32:23.101Z,34.67
2022-12-27T05:34:49.772Z,34.63
2022-12-27T05:37:16.504Z,33.28
2022-12-27T05:39:43.224Z,34.90
2022-12-27T05:42:09.912Z,36.03
2022-12-27T05:44:36.602Z,34.13
2022-12-27T05:47:03.481Z,32.38
2022-12-27T05:49:30.200Z,29.15
2022-12-27T05:51:56.906Z,30.95
2022-12-27T05:54:23.591Z,132.30
2022-12-27T05:56:50.291Z,28.38
2022-12-27T05:59:16.956Z,24.58
2022-12-27T06:01:43.785Z,26.10
2022-12-27T06:04:10.912Z,25.48
2022-12-27T06:06:37.769Z,25.33
2022-12-27T06:09:04.488Z,27.15
2022-12-27T06:11:31.166Z,26.50
2022-12-27T06:13:57.897Z,26.70
2022-12-27T06:16:24.611Z,27.50
2022-12-27T06:18:51.372Z,25.38
2022-12-27T06:21:20.303Z,26.35
2022-12-27T06:23:47.729Z,26.42
2022-12-27T06:26:25.021Z,25.20
2022-12-27T06:28:52.421Z,25.48
2022-12-27T06:31:20.614Z,27.50
2022-12-27T06:33:48.468Z,24.65
2022-12-27T06:36:20.548Z,25.48
2022-12-27T06:38:47.762Z,24.65
2022-12-27T06:41:17.481Z,23.40
2022-12-27T06:43:44.893Z,23.17
2022-12-27T06:46:17.542Z,21.77
2022-12-27T06:48:48.191Z,20.95
2022-12-27T06:51:16.394Z,25.23
2022-12-27T06:53:43.086Z,24.48
2022-12-27T06:56:16.736Z,39.85
2022-12-27T06:58:44.223Z,39.97
2022-12-27T07:01:13.549Z,39.40
2022-12-27T07:03:40.824Z,43.55
2022-12-27T07:06:09.295Z,38.10
2022-12-27T07:08:36.339Z,35.38
2022-12-27T07:11:05.733Z,31.67
2022-12-27T07:16:09.282Z,29.27
2022-12-27T07:18:37.215Z,38.17
2022-12-27T07:21:13.257Z,40.13
2022-12-27T07:23:40.463Z,41.80
2022-12-27T07:26:09.451Z,41.53
2022-12-27T07:28:36.765Z,42.13
2022-12-27T07:31:08.358Z,47.65
2022-12-27T07:33:36.653Z,39.70
2022-12-27T07:36:04.581Z,35.15
2022-12-27T07:38:31.357Z,39.25
2022-12-27T07:41:02.264Z,37.53
2022-12-27T07:43:35.668Z,44.83
2022-12-27T07:46:10.508Z,34.80
2022-12-27T07:48:37.747Z,35.72
2022-12-27T07:51:06.517Z,39.08
2022-12-27T07:53:33.944Z,39.47
2022-12-27T07:56:06.630Z,38.90
2022-12-27T07:58:39.694Z,40.05
2022-12-27T08:01:07.255Z,37.38
2022-12-27T08:03:34.125Z,34.78
2022-12-27T08:06:00.860Z,30.40
2022-12-27T08:08:39.786Z,31.20
2022-12-27T08:11:06.744Z,34.90
2022-12-27T08:13:33.605Z,39.38
2022-12-27T08:16:00.729Z,38.00
2022-12-27T08:18:27.491Z,51.15
2022-12-27T08:20:54.490Z,61.17
2022-12-27T08:23:21.369Z,58.30
2022-12-27T08:25:49.007Z,57.28
2022-12-27T08:28:17.727Z,42.22
2022-12-27T08:30:45.258Z,40.72
2022-12-27T08:33:12.462Z,40.35
2022-12-27T08:35:53.504Z,38.80
2022-12-27T08:38:21.022Z,39.78
2022-12-27T08:40:47.810Z,37.72
2022-12-27T08:43:14.718Z,37.83
2022-12-27T08:45:41.939Z,46.78
2022-12-27T08:48:08.948Z,43.28
2022-12-27T08:50:36.078Z,34.50
2022-12-27T08:53:04.236Z,31.13
2022-12-27T08:55:31.553Z,26.38
2022-12-27T08:58:02.831Z,31.08
2022-12-27T09:00:30.514Z,29.02
2022-12-27T09:02:57.485Z,27.20
2022-12-27T09:05:25.860Z,27.90
2022-12-27T09:07:52.930Z,27.02
2022-12-27T09:10:20.995Z,25.60
2022-12-27T09:12:47.727Z,26.08
2022-12-27T09:15:14.510Z,26.60
2022-12-27T09:17:41.687Z,24.73
2022-12-27T09:20:09.286Z,23.05
2022-12-27T09:22:35.958Z,23.60
2022-12-27T09:25:02.782Z,21.27
2022-12-27T09:27:29.689Z,23.98
2022-12-27T09:29:56.362Z,24.35
2022-12-27T09:32:27.494Z,21.77
2022-12-27T09:34:54.719Z,19.25
2022-12-27T09:37:21.445Z,21.00
2022-12-27T09:39:48.180Z,17.85
2022-12-27T09:42:53.473Z,15.52
2022-12-27T09:45:29.064Z,15.80
2022-12-27T09:48:01.598Z,13.18
2022-12-27T09:50:33.818Z,12.48
2022-12-27T09:53:06.052Z,14.18
2022-12-27T09:55:39.076Z,14.13
2022-12-27T09:58:34.982Z,13.32
2022-12-27T10:01:02.527Z,15.27
2022-12-27T10:03:30.363Z,16.45
2022-12-27T10:06:15.729Z,15.95
2022-12-27T10:09:16.801Z,14.02
2022-12-27T10:12:05.071Z,15.40
2022-12-27T10:14:59.857Z,13.15
2022-12-27T10:17:52.677Z,10.02
2022-12-27T10:20:31.149Z,12.25
2022-12-27T10:23:06.216Z,10.50
2022-12-27T10:25:35.196Z,10.32
2022-12-27T10:28:17.454Z,11.27
2022-12-27T10:30:44.707Z,12.63
2022-12-27T10:33:22.523Z,13.05
2022-12-27T10:35:49.265Z,12.13
2022-12-27T10:38:18.616Z,13.27
2022-12-27T10:41:20.331Z,13.40
2022-12-27T10:43:51.156Z,14.50
2022-12-27T10:46:33.394Z,13.07
2022-12-27T10:51:50.485Z,12.57
2022-12-27T10:54:22.799Z,10.43
2022-12-27T10:56:49.581Z,8.15
2022-12-27T10:59:22.384Z,8.38
2022-12-27T11:02:07.229Z,8.10
2022-12-27T11:04:34.652Z,7.85
2022-12-27T11:07:04.374Z,9.40
2022-12-27T11:09:34.826Z,8.93
2022-12-27T11:12:28.750Z,9.38
2022-12-27T11:14:59.701Z,12.95
2022-12-27T11:17:39.570Z,15.50
2022-12-27T11:20:19.265Z,13.63
2022-12-27T11:22:48.867Z,17.90
2022-12-27T11:25:16.325Z,21.25
2022-12-27T11:28:04.934Z,39.28
2022-12-27T11:30:35.037Z,11.63
2022-12-27T11:33:19.682Z,9.05
2022-12-27T11:35:53.198Z,7.38
2022-12-27T11:41:46.168Z,7.32
2022-12-27T11:44:28.928Z,8.55
2022-12-27T11:47:00.249Z,9.07
2022-12-27T11:49:34.539Z,9.38
2022-12-27T11:52:15.281Z,11.35
2022-12-27T11:54:57.531Z,10.88
2022-12-27T11:57:43.922Z,11.18
2022-12-27T12:00:14.091Z,10.80
2022-12-27T12:02:57.734Z,10.38
2022-12-27T12:05:41.903Z,11.15
2022-12-27T12:08:15.988Z,10.98
2022-12-27T12:11:01.050Z,11.77
2022-12-27T12:13:46.155Z,11.88
2022-12-27T12:16:40.962Z,11.20
2022-12-27T12:19:45.775Z,11.82
2022-12-27T12:22:30.158Z,11.30
2022-12-27T12:25:24.808Z,10.48
2022-12-27T12:28:23.324Z,11.00
2022-12-27T12:31:28.147Z,10.70
2022-12-27T12:34:20.514Z,7.10
2022-12-27T12:37:17.831Z,8.00
2022-12-27T12:40:02.516Z,4.97
2022-12-27T12:43:14.385Z,4.13
2022-12-27T12:45:53.038Z,5.18
2022-12-27T12:48:42.145Z,4.47
2022-12-27T12:51:27.702Z,3.75
2022-12-27T12:54:19.073Z,5.22
2022-12-27T12:57:04.519Z,3.78
2022-12-27T13:00:02.028Z,3.25
2022-12-27T13:02:47.289Z,3.03
2022-12-27T13:05:28.244Z,3.75
2022-12-27T13:08:24.369Z,5.38
2022-12-27T13:10:59.982Z,4.15
2022-12-27T13:13:54.821Z,4.18
2022-12-27T13:16:55.686Z,5.18
2022-12-27T13:19:53.184Z,3.55
2022-12-27T13:22:37.979Z,7.18
2022-12-27T13:25:45.881Z,5.72
2022-12-27T13:28:30.648Z,3.35
2022-12-27T13:31:10.612Z,3.15
2022-12-27T13:34:00.745Z,3.72
2022-12-27T13:36:37.093Z,4.55
2022-12-27T13:39:08.679Z,3.90
2022-12-27T13:41:54.643Z,3.90
2022-12-27T13:44:34.708Z,4.80
2022-12-27T13:47:58.517Z,3.80
2022-12-27T13:50:54.372Z,3.67
2022-12-27T13:53:50.388Z,3.97
2022-12-27T13:59:36.812Z,4.22
2022-12-27T14:02:36.014Z,6.70
2022-12-27T14:05:03.028Z,3.78
2022-12-27T14:07:55.106Z,4.15
2022-12-27T14:10:46.739Z,5.22
2022-12-27T14:13:27.074Z,6.30
2022-12-27T14:15:59.597Z,4.53
2022-12-27T14:18:53.067Z,3.78
2022-12-27T14:21:56.466Z,3.92
2022-12-27T14:24:47.587Z,3.90
2022-12-27T14:27:49.519Z,4.63
2022-12-27T14:30:22.272Z,5.13
2022-12-27T14:32:57.803Z,4.85
2022-12-27T14:35:50.629Z,4.50
2022-12-27T14:38:28.208Z,4.63
2022-12-27T14:41:26.042Z,4.40
2022-12-27T14:44:27.058Z,4.47
2022-12-27T14:47:08.905Z,4.15
2022-12-27T14:49:54.193Z,3.97
2022-12-27T14:52:48.660Z,4.57
2022-12-27T14:55:30.521Z,4.18
2022-12-27T14:58:23.496Z,4.80
2022-12-27T15:01:06.689Z,4.40
2022-12-27T15:04:06.991Z,5.45
2022-12-27T15:07:04.221Z,4.45
2022-12-27T15:09:54.350Z,5.20
2022-12-27T15:12:42.859Z,4.32
2022-12-27T15:15:27.663Z,4.32
2022-12-27T15:18:17.312Z,5.38
2022-12-27T15:21:08.680Z,4.57
2022-12-27T15:23:55.218Z,6.45
2022-12-27T15:26:43.913Z,8.50
2022-12-27T15:29:26.559Z,5.93
2022-12-27T15:32:14.783Z,5.80
2022-12-27T15:35:06.945Z,5.10
2022-12-27T15:37:56.105Z,8.60
2022-12-27T15:40:35.016Z,5.70
2022-12-27T15:43:25.867Z,5.80
2022-12-27T15:45:58.637Z,5.82
2022-12-27T15:48:48.501Z,5.82
2022-12-27T15:51:41.825Z,6.22
2022-12-27T15:54:17.912Z,6.47
2022-12-27T15:57:05.625Z,7.00
2022-12-27T15:59:35.413Z,11.18
2022-12-27T16:02:17.405Z,13.40
2022-12-27T16:04:56.940Z,11.65
2022-12-27T16:07:37.349Z,9.60
2022-12-27T16:10:35.728Z,15.23
2022-12-27T16:13:05.225Z,9.80
2022-12-27T16:15:37.667Z,10.93
2022-12-27T16:18:05.073Z,18.77
2022-12-27T16:20:32.638Z,21.10
2022-12-27T16:23:05.411Z,31.30
2022-12-27T16:25:40.642Z,27.17
2022-12-27T16:28:16.393Z,17.45
2022-12-27T16:30:46.841Z,19.73
2022-12-27T16:33:25.762Z,16.67
2022-12-27T16:36:17.187Z,12.90
2022-12-27T16:38:45.899Z,8.00
2022-12-27T16:41:19.078Z,10.90
2022-12-27T16:44:03.908Z,7.80
2022-12-27T16:46:55.093Z,7.55
2022-12-27T16:49:40.000Z,10.20
2022-12-27T16:52:25.196Z,8.43
2022-12-27T16:55:25.696Z,8.32
2022-12-27T16:57:52.723Z,9.95
2022-12-27T17:00:22.789Z,22.33
2022-12-27T17:02:49.543Z,15.35
2022-12-27T17:05:16.204Z,8.88
2022-12-27T17:07:52.748Z,8.52
2022-12-27T17:10:35.536Z,8.15
2022-12-27T17:13:35.176Z,8.70
2022-12-27T17:16:09.428Z,8.38
2022-12-27T17:18:49.676Z,8.85
2022-12-27T17:21:30.740Z,9.98
2022-12-27T17:23:59.897Z,11.43
2022-12-27T17:26:26.517Z,14.50
2022-12-27T17:29:05.478Z,16.08
2022-12-27T17:31:57.340Z,17.05
2022-12-27T17:34:37.056Z,21.75
2022-12-27T17:37:22.234Z,21.27
2022-12-27T17:40:10.383Z,20.98
2022-12-27T17:43:04.548Z,21.83
2022-12-27T17:45:56.023Z,20.23
2022-12-27T17:48:30.809Z,16.40
2022-12-27T17:51:20.045Z,15.70
2022-12-27T17:54:06.995Z,18.85
2022-12-27T17:57:06.598Z,16.38
2022-12-27T17:59:37.689Z,16.45
2022-12-27T18:02:07.323Z,14.63
2022-12-27T18:04:37.150Z,13.15
2022-12-27T18:07:06.904Z,12.90
2022-12-27T18:09:42.654Z,13.80
2022-12-27T18:12:20.873Z,12.73
2022-12-27T18:15:00.273Z,12.27
2022-12-27T18:17:33.006Z,11.73
2022-12-27T18:19:59.712Z,11.07
2022-12-27T18:22:27.083Z,12.63
2022-12-27T18:24:53.812Z,11.52
2022-12-27T18:27:24.448Z,11.07
2022-12-27T18:29:52.035Z,9.82
2022-12-27T18:32:19.565Z,10.52
2022-12-27T18:34:58.932Z,10.13
2022-12-27T18:37:26.229Z,10.30
2022-12-27T18:40:00.617Z,10.32
2022-12-27T18:42:34.728Z,11.00
2022-12-27T18:45:16.198Z,9.70
2022-12-27T18:47:46.844Z,10.38
2022-12-27T18:50:18.409Z,9.18
2022-12-27T18:52:49.613Z,9.13
2022-12-27T18:55:26.817Z,8.70
2022-12-27T18:58:20.723Z,9.55
2022-12-27T19:01:05.821Z,8.57
2022-12-27T19:03:38.192Z,8.68
2022-12-27T19:06:11.858Z,9.07
2022-12-27T19:08:48.023Z,8.63
2022-12-27T19:11:29.379Z,9.95
2022-12-27T19:14:00.060Z,10.75
2022-12-27T19:16:31.940Z,9.13
2022-12-27T19:19:10.311Z,8.93
2022-12-27T19:21:38.859Z,8.07
2022-12-27T19:24:23.848Z,7.25
2022-12-27T19:26:51.086Z,6.57
2022-12-27T19:29:21.444Z,5.68
2022-12-27T19:32:08.149Z,6.10
2022-12-27T19:34:56.834Z,6.32
2022-12-27T19:37:26.160Z,6.75
2022-12-27T19:39:53.153Z,6.25
2022-12-27T19:42:27.298Z,6.47
2022-12-27T19:44:53.938Z,8.23
2022-12-27T19:47:20.707Z,8.68
2022-12-27T19:49:47.365Z,9.85
2022-12-27T19:52:19.378Z,11.90
2022-12-27T19:54:47.337Z,8.65
2022-12-27T19:57:14.656Z,9.27
2022-12-27T19:59:41.596Z,9.43
2022-12-27T20:02:08.601Z,10.00
2022-12-27T20:04:35.492Z,8.70
2022-12-27T20:07:03.005Z,8.68
2022-12-27T20:09:30.026Z,8.70
2022-12-27T20:11:56.930Z,8.35
2022-12-27T20:14:23.565Z,8.07
2022-12-27T20:16:50.386Z,8.68
2022-12-27T20:19:18.227Z,9.73
2022-12-27T20:21:45.107Z,9.05
2022-12-27T20:24:13.074Z,10.18
2022-12-27T20:26:40.560Z,8.80
2022-12-27T20:29:07.384Z,7.82
2022-12-27T20:31:42.213Z,7.57
2022-12-27T20:34:11.219Z,6.47
2022-12-27T20:36:38.048Z,5.93
2022-12-27T20:39:07.284Z,6.28
2022-12-27T20:41:34.308Z,5.63
2022-12-27T20:44:01.104Z,5.68
2022-12-27T20:46:28.133Z,5.95
2022-12-27T20:48:56.239Z,10.65
2022-12-27T20:51:28.248Z,4.70
2022-12-27T20:53:56.984Z,4.72
2022-12-27T20:56:24.214Z,4.57
2022-12-27T20:58:51.042Z,10.93
2022-12-27T21:01:23.216Z,4.30
2022-12-27T21:03:50.710Z,4.38
2022-12-27T21:06:20.586Z,4.90
2022-12-27T21:08:52.471Z,5.60
2022-12-27T21:11:32.373Z,4.82
2022-12-27T21:14:01.132Z,4.85
2022-12-27T21:16:29.261Z,4.63
2022-12-27T21:18:56.940Z,5.05
2022-12-27T21:21:28.415Z,4.97
2022-12-27T21:23:56.660Z,5.00
2022-12-27T21:26:26.045Z,5.00
2022-12-27T21:28:52.864Z,5.63
2022-12-27T21:31:19.609Z,4.13
2022-12-27T21:33:46.621Z,4.25
2022-12-27T21:36:16.145Z,4.55
2022-12-27T21:38:43.295Z,4.85
2022-12-27T21:41:13.926Z,4.65
2022-12-27T21:43:41.314Z,4.82
2022-12-27T21:46:19.209Z,5.57
2022-12-27T21:48:46.360Z,5.28
2022-12-27T21:51:15.549Z,4.72
2022-12-27T21:53:42.583Z,4.38
2022-12-27T21:56:11.206Z,4.97
2022-12-27T21:58:39.002Z,4.20
2022-12-27T22:01:11.289Z,4.35
2022-12-27T22:03:40.010Z,4.10
2022-12-27T22:06:12.842Z,5.10
2022-12-27T22:08:41.158Z,4.80
2022-12-27T22:11:07.896Z,5.50
2022-12-27T22:13:34.631Z,5.78
2022-12-27T22:16:04.019Z,5.93
2022-12-27T22:18:35.041Z,8.60
2022-12-27T22:21:05.973Z,8.00
2022-12-27T22:23:34.377Z,6.30
2022-12-27T22:26:01.348Z,7.35
2022-12-27T22:28:28.959Z,5.18
2022-12-27T22:30:56.525Z,4.07
2022-12-27T22:33:23.333Z,4.80
2022-12-27T22:35:49.997Z,4.00
2022-12-27T22:38:16.689Z,3.92
2022-12-27T22:40:46.302Z,4.18
2022-12-27T22:43:13.524Z,3.40
2022-12-27T22:45:45.471Z,3.35
2022-12-27T22:48:14.295Z,3.53
2022-12-27T22:50:40.964Z,3.95
2022-12-27T22:53:07.616Z,4.32
2022-12-27T22:55:34.321Z,4.65
2022-12-27T22:58:01.004Z,4.90
2022-12-27T23:00:27.682Z,4.65
2022-12-27T23:02:54.363Z,5.25
2022-12-27T23:05:21.023Z,5.35
2022-12-27T23:08:04.689Z,5.40
2022-12-27T23:10:33.005Z,5.28
2022-12-27T23:12:59.639Z,5.68
2022-12-27T23:15:26.304Z,5.40
2022-12-27T23:17:53.260Z,5.15
2022-12-27T23:20:20.078Z,5.53
2022-12-27T23:22:46.777Z,4.50
2022-12-27T23:25:13.502Z,4.57
2022-12-27T23:27:40.199Z,4.80
2022-12-27T23:30:07.290Z,5.68
2022-12-27T23:32:33.970Z,4.55
2022-12-27T23:35:00.653Z,5.38
2022-12-27T23:37:27.292Z,5.32
2022-12-27T23:39:53.968Z,4.80
2022-12-27T23:42:20.624Z,4.93
2022-12-27T23:44:47.303Z,4.78
2022-12-27T23:47:13.975Z,5.05
2022-12-27T23:49:40.613Z,4.72
2022-12-27T23:52:07.352Z,4.55
2022-12-27T23:54:34.030Z,4.72
2022-12-27T23:57:22.217Z,5.57
2022-12-27T23:59:47.399Z,6.18
